LIRS/GRS METAR and TAF weather

Enter ICAO airport designator
Station Type Date Time Source
LIRS METAR 2021/05/12 01:55 UTC NOAA

LIRS 120155Z 01004KT CAVOK 10/07 Q1011


Station Type Date Time Source
LIRS Decoded METAR 2021/05/12 01:55 UTC NOAA

Grosseto, Italy (LIRS) 42-45N 011-04E 7M
May 11, 2021 - 09:55 PM EDT / 2021.05.12 0155 UTC
Wind: from the N (010 degrees) at 5 MPH (4 KT):0
Visibility: greater than 7 mile(s):0
Temperature: 50 F (10 C)
Dew Point: 44 F (7 C)
Relative Humidity: 81%
Pressure (altimeter): 29.85 in. Hg (1011 hPa)
ob: LIRS 120155Z 01004KT CAVOK 10/07 Q1011
cycle: 2

Station Type Date Time Source
LIRS TAF 2018/06/29 09:24 UTC NOAA

TAF TAF LIRS 290800Z 2909/2921 VRB03KT 9999 FEW030
BECMG 2911/2913 24015KT

Example: see airport list